Time;durP1;ratioP1;P1;durP2;ratioP2;P2;SDS_P1;SDS_P2;PMS_P1;PMS_P2;Temp;Humidity;BMP_temperature;BMP_pressure;BME280_temperature;BME280_humidity;BME280_pressure;Samples;Min_cycle;Max_cycle;Signal;HPM_P1;HPM_P2
2023/09/11 00:01:52;;;;;;;2.13;1.63;;;20.40;99.90;;;;;;5088289;28;20051;-76
2023/09/11 00:04:18;;;;;;;1.92;1.65;;;20.40;99.90;;;;;;5086856;28;20629;-76
2023/09/11 00:06:45;;;;;;;1.92;1.73;;;20.30;1.00;;;;;;5070255;28;20221;-76
2023/09/11 00:09:12;;;;;;;2.45;1.98;;;20.30;1.00;;;;;;5086835;28;20051;-76
2023/09/11 00:11:39;;;;;;;1.90;1.67;;;20.30;1.00;;;;;;5088086;28;20109;-76
2023/09/11 00:14:06;;;;;;;2.17;1.80;;;20.30;1.00;;;;;;5085643;28;21459;-77
2023/09/11 00:16:32;;;;;;;1.83;1.63;;;20.30;1.00;;;;;;5069810;28;20112;-77
2023/09/11 00:18:59;;;;;;;1.92;1.65;;;20.20;1.00;;;;;;5088352;28;20093;-76
2023/09/11 00:21:26;;;;;;;2.50;1.90;;;20.20;1.00;;;;;;5087260;28;20070;-77
2023/09/11 00:23:53;;;;;;;2.17;1.90;;;20.20;1.00;;;;;;5085759;28;20056;-76
2023/09/11 00:26:20;;;;;;;1.73;1.55;;;20.10;1.00;;;;;;5083571;28;20070;-77
2023/09/11 00:28:46;;;;;;;2.38;2.17;;;20.00;1.00;;;;;;5076979;28;20107;-77
2023/09/11 00:31:13;;;;;;;2.53;1.77;;;20.00;1.00;;;;;;5065828;28;20136;-78
2023/09/11 00:33:40;;;;;;;2.67;2.20;;;20.00;1.00;;;;;;5084613;28;20124;-77
2023/09/11 00:36:07;;;;;;;3.00;2.38;;;19.90;1.00;;;;;;5086461;28;20084;-76
2023/09/11 00:38:34;;;;;;;3.15;2.78;;;19.90;1.00;;;;;;5067848;28;20478;-77
2023/09/11 00:41:00;;;;;;;3.30;2.85;;;19.80;1.00;;;;;;5082166;28;20059;-77
2023/09/11 00:43:27;;;;;;;2.97;2.67;;;19.80;1.00;;;;;;5084884;28;20044;-77
2023/09/11 00:45:55;;;;;;;2.90;2.50;;;19.70;1.00;;;;;;5087320;28;20040;-75
2023/09/11 00:48:22;;;;;;;2.60;2.20;;;19.70;1.00;;;;;;5086170;28;20052;-75
2023/09/11 00:50:49;;;;;;;3.08;2.38;;;19.70;1.00;;;;;;5086674;28;20105;-76
2023/09/11 00:53:17;;;;;;;2.30;2.00;;;19.70;1.00;;;;;;5085929;28;20056;-75
2023/09/11 00:55:45;;;;;;;3.03;2.25;;;19.70;1.00;;;;;;5086125;28;20480;-75
2023/09/11 00:58:16;;;;;;;3.17;2.70;;;19.70;1.00;;;;;;5086200;28;20044;-75
2023/09/11 01:00:46;;;;;;;2.65;2.40;;;19.70;1.00;;;;;;5084159;28;20048;-75
2023/09/11 01:03:13;;;;;;;3.08;2.58;;;19.60;1.00;;;;;;5082549;28;20048;-75
2023/09/11 01:05:40;;;;;;;2.63;2.30;;;19.60;1.00;;;;;;5082712;28;20063;-77
2023/09/11 01:08:07;;;;;;;2.90;2.58;;;19.50;1.00;;;;;;5084618;28;20039;-77
2023/09/11 01:10:34;;;;;;;2.53;2.30;;;19.50;1.00;;;;;;5087142;28;20506;-76
2023/09/11 01:13:02;;;;;;;2.63;2.38;;;19.50;1.00;;;;;;5085577;28;20052;-77
2023/09/11 01:15:33;;;;;;;3.17;2.88;;;19.50;1.00;;;;;;5069571;28;20078;-77
2023/09/11 01:18:08;;;;;;;2.97;2.67;;;19.50;1.00;;;;;;5084956;28;20048;-77
2023/09/11 01:20:44;;;;;;;3.03;2.72;;;19.50;1.00;;;;;;5085943;28;20044;-77
2023/09/11 01:23:49;;;;;;;3.35;2.85;;;19.40;1.00;;;;;;5086243;28;20067;-77
2023/09/11 01:26:44;;;;;;;3.53;3.08;;;19.40;1.00;;;;;;5084878;28;20047;-75
2023/09/11 01:29:20;;;;;;;2.88;2.63;;;19.30;1.00;;;;;;5080533;28;20131;-76
2023/09/11 01:31:46;;;;;;;3.28;2.97;;;19.30;1.00;;;;;;5078426;28;20085;-75
2023/09/11 01:34:13;;;;;;;3.35;2.97;;;19.30;1.00;;;;;;5061719;28;20052;-76
2023/09/11 01:36:40;;;;;;;3.05;2.75;;;19.30;1.00;;;;;;5082997;28;20040;-76
2023/09/11 01:39:07;;;;;;;3.58;2.88;;;19.20;1.00;;;;;;5086137;28;20124;-76
2023/09/11 01:41:36;;;;;;;2.75;2.55;;;19.20;1.00;;;;;;5066690;28;20075;-77
2023/09/11 01:44:15;;;;;;;3.17;2.83;;;19.20;1.00;;;;;;5069082;28;20634;-77
2023/09/11 01:46:42;;;;;;;2.90;2.55;;;19.20;1.00;;;;;;5085331;28;20079;-76
2023/09/11 01:49:09;;;;;;;2.78;2.55;;;19.20;1.00;;;;;;5085756;28;20056;-76
2023/09/11 01:51:37;;;;;;;3.38;3.05;;;19.20;1.00;;;;;;5068484;28;20577;-76
2023/09/11 01:54:05;;;;;;;4.53;3.95;;;19.30;3.30;;;;;;5068357;28;20043;-76
2023/09/11 01:56:31;;;;;;;4.32;3.67;;;19.30;14.10;;;;;;5085295;28;20687;-76
2023/09/11 01:58:58;;;;;;;3.95;3.60;;;19.30;13.00;;;;;;5084427;28;20051;-76
2023/09/11 02:01:26;;;;;;;4.88;4.38;;;19.30;16.10;;;;;;5051642;28;20051;-76
2023/09/11 02:03:53;;;;;;;4.32;3.92;;;19.40;20.10;;;;;;5068488;28;20051;-76
2023/09/11 02:06:20;;;;;;;4.30;3.90;;;19.40;19.50;;;;;;5085387;28;20048;-76
2023/09/11 02:08:46;;;;;;;4.45;4.05;;;19.40;18.80;;;;;;5084504;28;20079;-76
2023/09/11 02:11:13;;;;;;;3.53;3.22;;;19.50;20.50;;;;;;5086158;28;20044;-76
2023/09/11 02:13:41;;;;;;;6.45;5.15;;;19.50;18.10;;;;;;5066381;28;20139;-76
2023/09/11 02:16:07;;;;;;;5.85;5.35;;;19.60;20.70;;;;;;5084786;28;20051;-76
2023/09/11 02:18:34;;;;;;;5.03;4.53;;;19.50;25.40;;;;;;5084578;28;20119;-76
2023/09/11 02:21:01;;;;;;;4.32;3.90;;;19.50;23.80;;;;;;5084588;28;20040;-76
2023/09/11 02:23:28;;;;;;;5.15;4.65;;;19.60;23.40;;;;;;5084095;28;20063;-76
2023/09/11 02:25:56;;;;;;;5.10;4.50;;;19.60;22.90;;;;;;5082385;28;20513;-76
2023/09/11 02:28:22;;;;;;;4.30;3.90;;;19.60;22.10;;;;;;5080270;28;20079;-76
2023/09/11 02:30:49;;;;;;;5.03;4.38;;;19.70;19.40;;;;;;5085978;28;20048;-76
2023/09/11 02:33:16;;;;;;;5.25;4.75;;;19.70;18.80;;;;;;5084375;28;20111;-76
2023/09/11 02:35:43;;;;;;;4.88;4.35;;;19.60;22.50;;;;;;5080520;28;20159;-76
2023/09/11 02:38:10;;;;;;;4.85;4.30;;;19.60;22.80;;;;;;5067480;28;20058;-76
2023/09/11 02:40:37;;;;;;;4.53;4.13;;;19.70;25.10;;;;;;5084819;28;20093;-76
2023/09/11 02:43:04;;;;;;;5.20;4.70;;;19.70;22.40;;;;;;5084276;28;20052;-77
2023/09/11 02:45:31;;;;;;;6.65;4.45;;;19.60;25.60;;;;;;5051333;28;20056;-76
2023/09/11 02:47:57;;;;;;;5.38;4.85;;;19.60;27.10;;;;;;5067241;28;20163;-76
2023/09/11 02:50:24;;;;;;;5.13;4.47;;;19.60;28.60;;;;;;5084008;28;20044;-76
2023/09/11 02:52:51;;;;;;;4.75;3.60;;;19.60;29.90;;;;;;5068338;28;20138;-78
2023/09/11 02:55:18;;;;;;;5.47;4.05;;;19.60;28.60;;;;;;5085480;28;20067;-75
2023/09/11 02:57:45;;;;;;;6.40;5.60;;;19.70;26.80;;;;;;5084498;28;20040;-76
2023/09/11 03:00:12;;;;;;;6.32;5.65;;;19.70;28.20;;;;;;5083279;28;20116;-75
2023/09/11 03:02:39;;;;;;;11.77;7.70;;;19.60;33.30;;;;;;5067561;28;20044;-75
2023/09/11 03:05:07;;;;;;;8.40;6.63;;;19.50;42.70;;;;;;5067519;28;20040;-75
2023/09/11 03:07:34;;;;;;;6.22;5.22;;;19.50;46.70;;;;;;5067614;28;20055;-76
2023/09/11 03:10:02;;;;;;;5.45;4.60;;;19.50;55.20;;;;;;5085348;28;20040;-76
2023/09/11 03:12:29;;;;;;;5.15;3.75;;;19.50;55.60;;;;;;5067600;28;20137;-75
2023/09/11 03:15:03;;;;;;;6.07;5.13;;;19.60;52.90;;;;;;5065788;28;20471;-75
2023/09/11 03:17:30;;;;;;;6.45;5.40;;;19.60;52.70;;;;;;5085628;28;20060;-75
2023/09/11 03:19:57;;;;;;;5.85;4.75;;;19.50;55.50;;;;;;5085196;28;20054;-75
2023/09/11 03:22:24;;;;;;;5.18;4.55;;;19.50;56.30;;;;;;5085471;28;20101;-75
2023/09/11 03:24:51;;;;;;;5.18;4.43;;;19.50;56.00;;;;;;5084617;28;20088;-74
2023/09/11 03:27:18;;;;;;;5.03;3.95;;;19.50;59.00;;;;;;5082527;28;20131;-75
2023/09/11 03:29:44;;;;;;;5.53;4.95;;;19.50;58.50;;;;;;5064854;28;20044;-75
2023/09/11 03:32:11;;;;;;;4.97;4.22;;;19.50;64.30;;;;;;5084696;28;20044;-74
2023/09/11 03:34:38;;;;;;;4.53;4.07;;;19.50;67.00;;;;;;5081801;28;20043;-75
2023/09/11 03:37:05;;;;;;;5.20;4.53;;;19.50;82.30;;;;;;5085874;28;20044;-75
2023/09/11 03:39:32;;;;;;;5.72;4.95;;;19.40;83.10;;;;;;5084072;28;20105;-74
2023/09/11 03:41:58;;;;;;;5.53;4.20;;;19.40;89.10;;;;;;5084066;28;20036;-75
2023/09/11 03:44:25;;;;;;;4.13;3.72;;;19.40;91.90;;;;;;5061875;28;20048;-73
2023/09/11 03:46:52;;;;;;;3.83;3.45;;;19.50;93.40;;;;;;5083557;28;20148;-74
2023/09/11 03:49:19;;;;;;;4.03;3.60;;;19.50;93.00;;;;;;5085126;28;20105;-74
2023/09/11 03:51:45;;;;;;;4.38;3.67;;;19.50;93.70;;;;;;5083912;28;20071;-74
2023/09/11 03:54:12;;;;;;;4.60;4.07;;;19.50;95.70;;;;;;5066934;28;20437;-75
2023/09/11 03:56:39;;;;;;;4.78;3.78;;;19.50;96.90;;;;;;5083666;28;20048;-74
2023/09/11 03:59:06;;;;;;;4.57;3.60;;;19.50;96.30;;;;;;5065945;28;20047;-75
2023/09/11 04:01:33;;;;;;;3.70;3.35;;;19.50;95.70;;;;;;5083608;28;20044;-76
2023/09/11 04:04:00;;;;;;;5.10;4.10;;;19.50;93.60;;;;;;5084968;28;20559;-76
2023/09/11 04:06:27;;;;;;;4.13;3.72;;;19.50;93.20;;;;;;5083832;28;20048;-74
2023/09/11 04:08:53;;;;;;;4.07;3.15;;;19.60;94.40;;;;;;5066577;28;20040;-75
2023/09/11 04:11:22;;;;;;;4.25;3.40;;;19.60;92.70;;;;;;5082391;28;20051;-75
2023/09/11 04:13:49;;;;;;;4.03;3.42;;;19.60;94.20;;;;;;5064370;28;20071;-76
2023/09/11 04:16:16;;;;;;;3.92;3.22;;;19.60;93.40;;;;;;5081296;28;20056;-76
2023/09/11 04:18:43;;;;;;;4.88;4.28;;;19.60;93.00;;;;;;5083286;28;20072;-75
2023/09/11 04:21:10;;;;;;;4.55;3.97;;;19.60;91.60;;;;;;5050841;28;20090;-75
2023/09/11 04:23:37;;;;;;;4.55;3.70;;;19.60;90.40;;;;;;5082734;28;20494;-75
2023/09/11 04:26:06;;;;;;;3.10;2.70;;;19.60;90.20;;;;;;5083806;28;20052;-75
2023/09/11 04:28:34;;;;;;;4.75;4.00;;;19.70;84.40;;;;;;5065113;28;20048;-76
2023/09/11 04:31:01;;;;;;;4.97;4.05;;;19.70;76.30;;;;;;5065735;28;20041;-75
2023/09/11 04:33:28;;;;;;;4.03;3.30;;;19.60;74.70;;;;;;5066452;28;20186;-75
2023/09/11 04:35:55;;;;;;;6.78;3.10;;;19.60;60.90;;;;;;5066490;28;20075;-74
2023/09/11 04:38:21;;;;;;;5.32;2.97;;;19.60;54.50;;;;;;5082817;28;20056;-74
2023/09/11 04:40:53;;;;;;;3.47;3.15;;;19.70;41.40;;;;;;5066853;28;20052;-74
2023/09/11 04:43:20;;;;;;;4.45;2.90;;;19.70;36.00;;;;;;5064951;28;20120;-74
2023/09/11 04:45:47;;;;;;;2.97;2.60;;;19.70;32.10;;;;;;5084225;28;20040;-75
2023/09/11 04:48:13;;;;;;;2.95;2.45;;;19.70;32.10;;;;;;5079222;28;20297;-77
2023/09/11 04:50:40;;;;;;;3.40;2.70;;;19.70;28.50;;;;;;5086961;28;20084;-77
2023/09/11 04:53:07;;;;;;;4.82;3.35;;;19.70;22.30;;;;;;5084967;28;20750;-76
2023/09/11 04:55:34;;;;;;;3.20;2.63;;;19.70;20.50;;;;;;5084895;28;20044;-75
2023/09/11 04:58:01;;;;;;;2.80;2.55;;;19.70;19.90;;;;;;5083569;28;20123;-75
2023/09/11 05:00:29;;;;;;;2.78;2.42;;;19.70;15.00;;;;;;5084867;28;20052;-76
2023/09/11 05:02:56;;;;;;;2.75;2.38;;;19.80;17.30;;;;;;5080867;28;20045;-75
2023/09/11 05:05:23;;;;;;;3.33;3.03;;;19.80;18.00;;;;;;5049781;28;20048;-75
2023/09/11 05:07:50;;;;;;;4.53;2.55;;;19.80;8.50;;;;;;5064571;28;20048;-76
2023/09/11 05:10:18;;;;;;;3.10;2.47;;;19.70;1.00;;;;;;5082495;28;20060;-76
2023/09/11 05:12:45;;;;;;;3.33;2.42;;;19.70;1.00;;;;;;5079606;28;20052;-76
2023/09/11 05:15:13;;;;;;;3.33;3.03;;;19.80;1.00;;;;;;5063271;28;20060;-76
2023/09/11 05:17:40;;;;;;;3.05;2.20;;;19.80;1.00;;;;;;5064840;28;20052;-76
2023/09/11 05:20:07;;;;;;;2.88;2.38;;;19.80;1.00;;;;;;5064923;28;20062;-76
2023/09/11 05:22:34;;;;;;;2.85;2.35;;;19.80;1.00;;;;;;5081849;28;20056;-76
2023/09/11 05:25:01;;;;;;;4.00;3.28;;;19.80;1.00;;;;;;5067148;28;20113;-76
2023/09/11 05:27:28;;;;;;;2.88;2.25;;;19.70;1.00;;;;;;5083802;28;20376;-76
2023/09/11 05:29:55;;;;;;;3.40;2.95;;;19.70;1.00;;;;;;5083482;28;20047;-77
2023/09/11 05:32:23;;;;;;;3.10;2.50;;;19.70;1.00;;;;;;5081923;28;20072;-76
2023/09/11 05:34:50;;;;;;;2.78;2.40;;;19.80;1.00;;;;;;5060064;28;20048;-75
2023/09/11 05:37:16;;;;;;;3.42;3.13;;;19.70;1.00;;;;;;5074433;28;20044;-76
2023/09/11 05:39:44;;;;;;;2.90;2.35;;;19.80;1.00;;;;;;5065088;28;20102;-75
2023/09/11 05:42:11;;;;;;;2.20;2.00;;;19.80;1.00;;;;;;5084179;28;20058;-75
2023/09/11 05:44:38;;;;;;;2.63;2.25;;;19.80;1.00;;;;;;5084593;28;20075;-75
2023/09/11 05:47:06;;;;;;;2.17;1.70;;;19.80;1.00;;;;;;5087069;28;20044;-75
2023/09/11 05:49:33;;;;;;;2.22;1.83;;;19.80;1.00;;;;;;5084564;28;20052;-76
2023/09/11 05:52:00;;;;;;;1.88;1.30;;;19.90;1.00;;;;;;5067713;28;20040;-76
2023/09/11 05:54:27;;;;;;;1.80;1.60;;;19.90;1.00;;;;;;5084736;28;20048;-75
2023/09/11 05:56:54;;;;;;;2.95;1.85;;;19.90;1.00;;;;;;5061688;28;20050;-76
2023/09/11 05:59:21;;;;;;;2.28;1.90;;;19.90;1.00;;;;;;5063697;28;20047;-76
2023/09/11 06:01:48;;;;;;;1.95;1.55;;;20.00;1.00;;;;;;5079856;28;20109;-77
2023/09/11 06:04:15;;;;;;;1.92;1.60;;;20.00;1.00;;;;;;5081228;28;20093;-76
2023/09/11 06:06:41;;;;;;;1.60;1.38;;;20.00;1.00;;;;;;5075604;28;20054;-76
2023/09/11 06:09:09;;;;;;;1.80;1.50;;;20.10;1.00;;;;;;5060363;28;20040;-77
2023/09/11 06:11:35;;;;;;;1.65;1.45;;;20.00;1.00;;;;;;5067692;28;20051;-75
2023/09/11 06:14:04;;;;;;;2.38;1.83;;;20.10;1.00;;;;;;5069371;28;20862;-77
2023/09/11 06:16:31;;;;;;;1.90;1.70;;;20.10;1.00;;;;;;5058516;28;20094;-75
2023/09/11 06:18:58;;;;;;;2.13;1.63;;;20.00;1.00;;;;;;5063253;28;20044;-76
2023/09/11 06:21:25;;;;;;;2.10;1.80;;;20.10;1.00;;;;;;5077305;28;20044;-76
2023/09/11 06:23:52;;;;;;;2.83;2.40;;;20.00;1.00;;;;;;5080865;28;20134;-76
2023/09/11 06:26:19;;;;;;;2.42;2.20;;;20.00;1.00;;;;;;5079902;28;20101;-77
2023/09/11 06:28:46;;;;;;;2.83;2.50;;;20.00;1.00;;;;;;5064060;28;20112;-76
2023/09/11 06:31:13;;;;;;;2.63;2.13;;;20.00;1.00;;;;;;5080795;28;20261;-76
2023/09/11 06:33:40;;;;;;;2.97;2.53;;;20.00;1.00;;;;;;5083897;28;20044;-76
2023/09/11 06:36:07;;;;;;;3.17;2.88;;;20.10;1.00;;;;;;5049817;28;20044;-76
2023/09/11 06:38:34;;;;;;;2.50;2.15;;;20.10;1.00;;;;;;5078831;28;20060;-76
2023/09/11 06:41:01;;;;;;;2.35;1.88;;;20.20;1.00;;;;;;5086507;28;20550;-76
2023/09/11 06:43:28;;;;;;;2.25;1.92;;;20.30;1.00;;;;;;5082950;28;20109;-76
2023/09/11 06:45:54;;;;;;;1.95;1.52;;;20.30;1.00;;;;;;5082881;28;20040;-77
2023/09/11 06:48:22;;;;;;;1.70;1.60;;;20.50;1.00;;;;;;5071113;28;20147;-76
2023/09/11 06:50:52;;;;;;;2.42;1.80;;;20.50;1.00;;;;;;5084687;28;20052;-76
2023/09/11 06:53:19;;;;;;;2.40;1.92;;;20.60;99.90;;;;;;5068472;28;20134;-76
2023/09/11 06:55:46;;;;;;;2.63;2.13;;;20.70;99.90;;;;;;5061741;28;20131;-77
2023/09/11 06:58:13;;;;;;;2.58;2.00;;;20.80;99.90;;;;;;5056565;28;20513;-77
2023/09/11 07:00:40;;;;;;;1.70;1.60;;;20.80;99.90;;;;;;5085716;28;20093;-78
2023/09/11 07:03:07;;;;;;;2.50;2.25;;;21.00;99.90;;;;;;5062063;28;20051;-75
2023/09/11 07:05:34;;;;;;;2.60;2.05;;;21.00;99.90;;;;;;5077402;28;20097;-78
2023/09/11 07:08:01;;;;;;;2.38;1.80;;;21.00;99.90;;;;;;5082140;28;20083;-76
2023/09/11 07:10:28;;;;;;;2.15;1.77;;;21.10;99.90;;;;;;5075723;28;20051;-78
2023/09/11 07:13:07;;;;;;;2.10;1.90;;;21.20;99.90;;;;;;5070850;28;20143;-75
2023/09/11 07:15:34;;;;;;;2.17;1.60;;;21.30;99.90;;;;;;5077301;28;20048;-76
2023/09/11 07:18:00;;;;;;;4.30;1.77;;;21.50;99.90;;;;;;5070391;28;20048;-77
2023/09/11 07:20:27;;;;;;;2.00;1.70;;;21.50;99.90;;;;;;5084957;28;20055;-77
2023/09/11 07:22:54;;;;;;;1.88;1.70;;;21.60;99.90;;;;;;5066995;28;20156;-76
2023/09/11 07:25:22;;;;;;;2.08;1.83;;;21.60;99.90;;;;;;5067788;28;20081;-76
2023/09/11 07:27:54;;;;;;;1.92;1.70;;;21.70;99.90;;;;;;5086238;28;20055;-76
2023/09/11 07:30:20;;;;;;;1.60;1.50;;;21.60;99.90;;;;;;5078714;28;20059;-76
2023/09/11 07:32:47;;;;;;;2.53;1.85;;;21.70;99.90;;;;;;5079519;28;20135;-76
2023/09/11 07:35:14;;;;;;;2.20;2.00;;;21.60;99.90;;;;;;5081721;28;20116;-76
2023/09/11 07:37:41;;;;;;;2.58;1.98;;;21.70;99.90;;;;;;5081211;28;20048;-75
2023/09/11 07:40:08;;;;;;;2.20;1.75;;;21.70;99.90;;;;;;5071045;28;20106;-76
2023/09/11 07:42:36;;;;;;;2.40;2.00;;;21.60;99.90;;;;;;5076894;28;20044;-76
2023/09/11 07:45:03;;;;;;;2.20;1.90;;;21.50;99.90;;;;;;5080810;28;20059;-76
2023/09/11 07:47:30;;;;;;;2.17;1.52;;;21.50;99.90;;;;;;5085823;28;20044;-77
2023/09/11 07:49:57;;;;;;;3.03;2.30;;;21.60;99.90;;;;;;5092744;28;20127;-76
2023/09/11 07:52:24;;;;;;;2.10;1.75;;;21.60;99.90;;;;;;5082126;28;20040;-76
2023/09/11 07:54:51;;;;;;;3.58;2.25;;;21.70;99.90;;;;;;5083463;28;20070;-83
2023/09/11 07:57:17;;;;;;;2.75;2.40;;;21.60;75.10;;;;;;5062056;28;20132;-77
2023/09/11 07:59:44;;;;;;;2.53;2.33;;;21.60;6.80;;;;;;5066452;28;20101;-77
2023/09/11 08:02:11;;;;;;;2.17;1.95;;;21.70;1.00;;;;;;5067471;28;20138;-78
2023/09/11 08:04:39;;;;;;;3.50;2.78;;;21.70;1.00;;;;;;5083930;28;20048;-77
2023/09/11 08:07:06;;;;;;;2.65;1.95;;;21.70;1.00;;;;;;5068597;28;20045;-77
2023/09/11 08:09:33;;;;;;;2.45;2.03;;;21.70;1.00;;;;;;5066867;28;20051;-77
2023/09/11 08:12:00;;;;;;;3.30;2.47;;;21.70;1.00;;;;;;5065872;28;20124;-78
2023/09/11 08:14:27;;;;;;;2.40;1.90;;;21.70;1.00;;;;;;5084364;28;20055;-76
2023/09/11 08:16:54;;;;;;;3.70;2.70;;;21.80;1.00;;;;;;5080984;28;20048;-79
2023/09/11 08:19:21;;;;;;;2.97;2.17;;;21.80;1.00;;;;;;5082463;28;20068;-76
2023/09/11 08:21:48;;;;;;;3.92;3.50;;;21.80;1.00;;;;;;5085250;28;20040;-77
2023/09/11 08:24:15;;;;;;;3.15;2.50;;;21.80;1.00;;;;;;5067549;28;20052;-78
2023/09/11 08:26:42;;;;;;;3.17;2.30;;;21.90;1.00;;;;;;5087128;28;20044;-79
2023/09/11 08:29:11;;;;;;;2.70;2.30;;;21.90;1.00;;;;;;5083869;28;20048;-78
2023/09/11 08:31:39;;;;;;;3.65;2.90;;;22.10;1.00;;;;;;5082730;28;20103;-79
2023/09/11 08:34:06;;;;;;;3.63;3.00;;;22.10;1.00;;;;;;5064735;28;20637;-80
2023/09/11 08:36:33;;;;;;;3.13;2.70;;;22.10;1.00;;;;;;5082146;28;20380;-78
2023/09/11 08:39:00;;;;;;;3.72;3.17;;;22.10;1.00;;;;;;5083706;28;20125;-78
2023/09/11 08:41:27;;;;;;;3.53;2.95;;;22.10;1.00;;;;;;5065987;28;20171;-79
2023/09/11 08:43:54;;;;;;;4.20;2.85;;;22.10;1.00;;;;;;5048305;28;20113;-79
2023/09/11 08:46:20;;;;;;;3.03;2.50;;;22.20;1.00;;;;;;5070324;28;20105;-77
2023/09/11 08:48:49;;;;;;;4.03;3.35;;;22.30;1.00;;;;;;5083227;28;20158;-78
2023/09/11 08:51:22;;;;;;;5.55;4.07;;;22.30;1.00;;;;;;5081425;28;20132;-77
2023/09/11 08:53:51;;;;;;;4.35;3.20;;;22.30;1.00;;;;;;5082456;28;20136;-78
2023/09/11 08:56:18;;;;;;;3.38;3.08;;;22.40;1.00;;;;;;5087783;28;20630;-77
2023/09/11 08:58:45;;;;;;;3.50;3.20;;;22.50;1.00;;;;;;5089565;28;20060;-77
2023/09/11 09:01:12;;;;;;;3.10;2.80;;;22.50;1.00;;;;;;5066871;28;20048;-77
2023/09/11 09:03:40;;;;;;;3.10;2.80;;;22.50;1.00;;;;;;5086875;28;20131;-77
2023/09/11 09:06:07;;;;;;;3.05;2.70;;;22.50;1.00;;;;;;5068237;28;20127;-77
2023/09/11 09:08:34;;;;;;;2.60;2.40;;;22.50;1.00;;;;;;5083045;28;20048;-77
2023/09/11 09:11:01;;;;;;;2.88;2.33;;;22.50;1.00;;;;;;5082983;28;20046;-77
2023/09/11 09:13:34;;;;;;;3.95;2.80;;;22.50;1.00;;;;;;5084922;28;20140;-77
2023/09/11 09:16:00;;;;;;;3.30;2.88;;;22.40;1.00;;;;;;5067949;28;20063;-77
2023/09/11 09:18:27;;;;;;;3.83;3.08;;;22.50;1.00;;;;;;5083549;28;20056;-77
2023/09/11 09:20:55;;;;;;;3.05;2.70;;;22.50;1.00;;;;;;5082713;28;20139;-77
2023/09/11 09:23:35;;;;;;;3.13;2.72;;;22.50;99.90;;;;;;5082288;28;20761;-77
2023/09/11 09:26:06;;;;;;;2.83;2.53;;;22.50;99.90;;;;;;5050273;28;20060;-77
2023/09/11 09:28:33;;;;;;;3.03;2.70;;;22.50;99.90;;;;;;5082350;28;20138;-77
2023/09/11 09:31:03;;;;;;;3.28;2.40;;;22.50;99.90;;;;;;5085131;28;20131;-77
2023/09/11 09:33:30;;;;;;;1.92;1.75;;;22.60;99.90;;;;;;5082355;28;20055;-77
2023/09/11 09:35:58;;;;;;;2.55;2.03;;;22.80;99.90;;;;;;5068728;28;20058;-77
2023/09/11 09:38:25;;;;;;;2.53;1.95;;;22.80;99.90;;;;;;5051576;28;20056;-77
2023/09/11 09:40:54;;;;;;;2.63;1.90;;;22.80;99.90;;;;;;5065327;28;20048;-77
2023/09/11 09:43:21;;;;;;;2.58;1.73;;;22.70;99.90;;;;;;5078562;28;20131;-77
2023/09/11 09:45:48;;;;;;;2.33;2.08;;;22.60;99.90;;;;;;5063755;28;20623;-77
2023/09/11 09:48:18;;;;;;;2.20;1.80;;;22.50;89.10;;;;;;5083567;28;20097;-78
2023/09/11 09:50:53;;;;;;;2.03;1.55;;;22.50;99.90;;;;;;5085603;28;20643;-77
2023/09/11 09:53:35;;;;;;;2.95;1.90;;;22.50;62.00;;;;;;5084406;28;20062;-77
2023/09/11 09:56:07;;;;;;;1.70;1.60;;;22.50;1.00;;;;;;5069682;28;20055;-77
2023/09/11 09:58:35;;;;;;;3.27;2.53;;;22.60;99.90;;;;;;5083053;28;20063;-77
2023/09/11 10:01:12;;;;;;;1.73;1.63;;;22.60;14.70;;;;;;5082802;28;20052;-76
2023/09/11 10:03:40;;;;;;;2.53;1.88;;;22.60;99.90;;;;;;5082550;28;20044;-77
2023/09/11 10:06:15;;;;;;;2.92;1.50;;;22.50;99.90;;;;;;5085510;28;20173;-77
2023/09/11 10:08:41;;;;;;;1.65;1.40;;;22.60;1.00;;;;;;5085920;28;20047;-77
2023/09/11 10:11:30;;;;;;;1.58;1.30;;;22.70;99.90;;;;;;5085924;28;20052;-77
2023/09/11 10:13:59;;;;;;;1.35;1.20;;;22.60;99.90;;;;;;5082032;28;20055;-77
2023/09/11 10:16:26;;;;;;;1.88;1.30;;;22.80;1.00;;;;;;5085723;28;20052;-78
2023/09/11 10:18:55;;;;;;;1.60;1.25;;;22.80;99.90;;;;;;5072945;28;20062;-77
2023/09/11 10:21:23;;;;;;;1.35;1.20;;;22.90;99.90;;;;;;5078440;28;20138;-77
2023/09/11 10:23:51;;;;;;;1.58;1.23;;;22.80;99.90;;;;;;5084250;28;20067;-78
2023/09/11 10:26:51;;;;;;;2.00;1.23;;;22.80;73.10;;;;;;5081556;28;20506;-77
2023/09/11 10:29:25;;;;;;;2.58;1.02;;;22.80;41.60;;;;;;5061352;28;20121;-77
2023/09/11 10:32:29;;;;;;;0.90;0.85;;;22.80;13.90;;;;;;5085603;28;20060;-78
2023/09/11 10:34:56;;;;;;;1.25;1.13;;;22.90;1.00;;;;;;5074345;28;20043;-78
2023/09/11 10:37:23;;;;;;;1.13;1.02;;;23.00;1.00;;;;;;5068893;28;20071;-78
2023/09/11 10:39:50;;;;;;;0.80;0.80;;;23.20;1.00;;;;;;5085139;28;20051;-78
2023/09/11 10:42:17;;;;;;;2.90;1.10;;;23.20;1.00;;;;;;5084967;28;20127;-78
2023/09/11 10:44:44;;;;;;;1.17;0.80;;;23.30;1.00;;;;;;5084495;28;20105;-78
2023/09/11 10:47:11;;;;;;;2.03;0.93;;;23.50;1.00;;;;;;5084716;28;20665;-78
2023/09/11 10:49:40;;;;;;;0.95;0.73;;;23.80;1.00;;;;;;5084916;28;20055;-77
2023/09/11 10:52:08;;;;;;;1.40;1.00;;;24.10;1.00;;;;;;5082434;28;20051;-78
2023/09/11 10:54:35;;;;;;;2.38;1.17;;;24.10;99.90;;;;;;5065132;28;20094;-78
2023/09/11 10:57:02;;;;;;;0.98;0.88;;;24.20;99.90;;;;;;5068053;28;20052;-78
2023/09/11 10:59:29;;;;;;;1.10;0.80;;;24.40;99.90;;;;;;5066876;28;20044;-78
2023/09/11 11:01:56;;;;;;;2.47;0.80;;;24.60;99.90;;;;;;5085008;28;20139;-78
2023/09/11 11:04:24;;;;;;;1.38;0.90;;;24.70;99.90;;;;;;5084342;28;20080;-77
2023/09/11 11:06:53;;;;;;;2.22;1.02;;;24.80;99.90;;;;;;5052368;28;20062;-77
2023/09/11 11:09:30;;;;;;;1.55;0.90;;;25.00;99.90;;;;;;5084247;28;20052;-78
2023/09/11 11:12:02;;;;;;;1.35;1.05;;;25.00;99.90;;;;;;5081543;28;20207;-77
2023/09/11 11:14:29;;;;;;;0.85;0.63;;;25.30;99.90;;;;;;5064908;28;20059;-78
2023/09/11 11:17:04;;;;;;;0.57;0.57;;;25.50;99.90;;;;;;5084338;28;20475;-77
2023/09/11 11:19:32;;;;;;;0.75;0.70;;;25.60;99.90;;;;;;5083135;28;20056;-78
2023/09/11 11:22:01;;;;;;;0.70;0.70;;;25.70;99.90;;;;;;5064419;28;20090;-77
2023/09/11 11:24:31;;;;;;;0.80;0.70;;;25.80;99.90;;;;;;5080852;28;20056;-78
2023/09/11 11:26:57;;;;;;;1.10;0.80;;;26.00;99.90;;;;;;5081937;28;20134;-78
2023/09/11 11:29:26;;;;;;;0.70;0.70;;;26.20;99.90;;;;;;5065578;28;20059;-77
2023/09/11 11:31:53;;;;;;;1.05;0.75;;;26.50;99.90;;;;;;5068029;28;20054;-78
2023/09/11 11:34:27;;;;;;;0.57;0.57;;;26.90;99.90;;;;;;5064930;28;20055;-78
2023/09/11 11:36:57;;;;;;;1.08;0.73;;;26.90;99.90;;;;;;5064907;28;20052;-78
2023/09/11 11:39:26;;;;;;;1.38;0.70;;;27.00;99.90;;;;;;5051226;28;20048;-79
2023/09/11 11:41:53;;;;;;;0.88;0.70;;;27.10;99.90;;;;;;5064473;28;20189;-78
2023/09/11 11:44:21;;;;;;;0.80;0.80;;;26.80;99.90;;;;;;5080021;28;20097;-78
2023/09/11 11:46:48;;;;;;;1.00;0.75;;;26.40;99.90;;;;;;5081614;28;20052;-77
2023/09/11 11:49:18;;;;;;;1.20;0.80;;;26.30;99.90;;;;;;5080809;28;20489;-77
2023/09/11 11:51:45;;;;;;;0.77;0.68;;;26.10;99.90;;;;;;5066133;28;20503;-77
2023/09/11 11:54:30;;;;;;;0.95;0.85;;;26.00;99.90;;;;;;5084437;28;20110;-77
2023/09/11 11:57:02;;;;;;;0.70;0.70;;;26.10;99.90;;;;;;5087865;28;20044;-78
2023/09/11 11:59:33;;;;;;;1.25;0.95;;;26.00;99.90;;;;;;5070914;28;20048;-78
2023/09/11 12:02:00;;;;;;;1.08;0.93;;;25.90;99.90;;;;;;5089482;28;20083;-77
2023/09/11 12:04:28;;;;;;;0.75;0.75;;;25.90;99.90;;;;;;5067990;28;20048;-77
2023/09/11 12:07:14;;;;;;;0.90;0.80;;;26.20;99.90;;;;;;5085420;28;20063;-79
2023/09/11 12:09:41;;;;;;;0.75;0.70;;;26.80;99.90;;;;;;5089171;28;20055;-78
2023/09/11 12:12:08;;;;;;;0.65;0.60;;;27.20;99.90;;;;;;5068442;28;20055;-78
2023/09/11 12:14:36;;;;;;;0.65;0.60;;;27.40;99.90;;;;;;5077328;28;22377;-78
2023/09/11 12:17:12;;;;;;;0.70;0.60;;;27.70;99.90;;;;;;5081058;28;20079;-78
2023/09/11 12:19:39;;;;;;;1.05;0.90;;;27.70;99.90;;;;;;5053982;28;20040;-78
2023/09/11 12:22:08;;;;;;;1.05;0.80;;;27.80;99.90;;;;;;5079141;28;20144;-78
2023/09/11 12:24:35;;;;;;;0.98;0.63;;;27.90;99.90;;;;;;5047229;28;20131;-78
2023/09/11 12:27:02;;;;;;;0.75;0.73;;;27.80;99.90;;;;;;5065693;28;20105;-78
2023/09/11 12:29:29;;;;;;;1.42;0.90;;;28.10;99.90;;;;;;5082141;28;20062;-79
2023/09/11 12:31:57;;;;;;;1.42;0.90;;;28.60;99.90;;;;;;5075994;28;20044;-79
2023/09/11 12:34:24;;;;;;;1.02;0.90;;;29.00;99.90;;;;;;5067218;28;20529;-78
2023/09/11 12:36:51;;;;;;;0.68;0.60;;;29.20;99.90;;;;;;5053266;28;20044;-78
2023/09/11 12:39:18;;;;;;;0.32;0.32;;;29.20;99.90;;;;;;5048170;28;20052;-78
2023/09/11 12:41:45;;;;;;;1.02;0.77;;;29.20;99.90;;;;;;5081028;28;20052;-78
2023/09/11 12:44:12;;;;;;;0.95;0.57;;;29.20;99.90;;;;;;5065581;28;20725;-78
2023/09/11 12:46:39;;;;;;;0.95;0.65;;;29.40;99.90;;;;;;5084535;28;20055;-81
2023/09/11 12:49:05;;;;;;;0.70;0.60;;;29.70;99.90;;;;;;5081243;28;20036;-77
2023/09/11 12:51:33;;;;;;;0.60;0.60;;;29.50;99.90;;;;;;5068618;28;20044;-77
2023/09/11 12:54:00;;;;;;;0.55;0.55;;;29.20;99.90;;;;;;5066689;28;20063;-77
2023/09/11 12:56:27;;;;;;;0.60;0.57;;;29.00;99.90;;;;;;5062785;28;20064;-77